< < Back
Terminal Aerodrome Forecast


Current Version              Previous Versions:   1  2  3  4  5  6  7  8  9  

Terminal Aerodrome Forecast

828
FTUS42 KGSP 052331 AAB
TAFHKY
TAF AMD
KHKY 052331Z 0600/0624 02009KT P6SM VCSH OVC020
     FM060300 01009KT P6SM OVC025
     FM060600 01007KT P6SM BKN050
     FM060900 01005KT P6SM SCT250
     FM061900 10003KT P6SM FEW250
     FM062000 17003KT P6SM FEW250=

Latest METAR

788
SAUS70 KWBC 061100 RRA
MTRHKY
METAR KHKY 061053Z AUTO 04003KT 10SM CLR M06/M09 A3040 RMK AO2 SLP296
T10561094


USA.gov is the U.S. government's official web portal to all federal, state and local government web resources and services.